createdAt,value
2023-03-26T00:00:04.120Z,257.500000
2023-03-26T00:01:00.746Z,257.500000
2023-03-26T00:02:00.996Z,255.000000
2023-03-26T00:03:00.781Z,255.000000
2023-03-26T00:04:00.830Z,255.000000
2023-03-26T00:05:04.176Z,260.000000
2023-03-26T00:06:00.912Z,260.000000
2023-03-26T00:07:00.762Z,260.000000
2023-03-26T00:08:00.904Z,280.000000
2023-03-26T00:09:00.817Z,280.000000
2023-03-26T00:10:04.394Z,252.500000
2023-03-26T00:11:01.283Z,252.500000
2023-03-26T00:12:00.897Z,265.000000
2023-03-26T00:13:00.826Z,265.000000
2023-03-26T00:14:00.966Z,265.000000
2023-03-26T00:15:03.816Z,267.500000
2023-03-26T00:16:00.934Z,267.500000
2023-03-26T00:17:00.834Z,297.500000
2023-03-26T00:18:01.039Z,297.500000
2023-03-26T00:19:00.891Z,297.500000
2023-03-26T00:20:04.323Z,302.500000
2023-03-26T00:21:00.918Z,302.500000
2023-03-26T00:22:00.991Z,292.500000
2023-03-26T00:23:00.910Z,292.500000
2023-03-26T00:24:01.025Z,292.500000
2023-03-26T00:25:04.063Z,267.500000
2023-03-26T00:26:01.071Z,267.500000
2023-03-26T00:27:00.931Z,267.500000
2023-03-26T00:28:01.034Z,275.000000
2023-03-26T00:29:00.936Z,275.000000
2023-03-26T00:30:04.532Z,260.000000
2023-03-26T00:31:00.995Z,260.000000
2023-03-26T00:32:01.074Z,282.500000
2023-03-26T00:33:00.995Z,282.500000
2023-03-26T00:34:01.080Z,285.000000
2023-03-26T00:35:03.993Z,285.000000
2023-03-26T00:36:03.877Z,285.000000
2023-03-26T00:37:01.006Z,317.500000
2023-03-26T00:38:01.115Z,317.500000
2023-03-26T00:39:01.028Z,317.500000
2023-03-26T00:40:04.548Z,300.000000
2023-03-26T00:41:01.040Z,300.000000
2023-03-26T00:42:01.129Z,265.000000
2023-03-26T00:43:01.022Z,265.000000
2023-03-26T00:44:01.182Z,290.000000
2023-03-26T00:45:04.238Z,290.000000
2023-03-26T00:46:01.158Z,290.000000
2023-03-26T00:47:01.063Z,302.500000
2023-03-26T00:48:02.766Z,302.500000
2023-03-26T00:49:01.100Z,302.500000
2023-03-26T00:50:05.369Z,297.500000
2023-03-26T00:51:01.103Z,297.500000
2023-03-26T00:52:01.169Z,252.500000
2023-03-26T00:53:01.090Z,252.500000
2023-03-26T00:54:01.244Z,252.500000
2023-03-26T00:55:04.295Z,252.500000
2023-03-26T00:56:01.224Z,252.500000
2023-03-26T00:57:01.189Z,252.500000
2023-03-26T00:58:01.222Z,252.500000
2023-03-26T00:59:01.148Z,252.500000
2023-03-26T01:00:30.868Z,195.000000
2023-03-26T01:01:01.192Z,195.000000
2023-03-26T01:02:01.361Z,195.000000
2023-03-26T01:03:01.313Z,272.500000
2023-03-26T01:04:08.804Z,272.500000
2023-03-26T01:05:04.309Z,275.000000
2023-03-26T01:06:02.838Z,275.000000
2023-03-26T01:07:01.231Z,275.000000
2023-03-26T01:08:01.634Z,290.000000
2023-03-26T01:09:01.250Z,290.000000
2023-03-26T01:10:04.890Z,270.000000
2023-03-26T01:11:01.261Z,270.000000
2023-03-26T01:12:01.366Z,270.000000
2023-03-26T01:13:01.280Z,222.500000
2023-03-26T01:14:00.782Z,222.500000
2023-03-26T01:15:03.633Z,222.500000
2023-03-26T01:16:01.093Z,222.500000
2023-03-26T01:17:00.333Z,222.500000
2023-03-26T01:18:01.141Z,237.500000
2023-03-26T01:19:00.317Z,237.500000
2023-03-26T01:20:05.014Z,237.500000
2023-03-26T01:21:00.354Z,270.000000
2023-03-26T01:22:01.293Z,270.000000
2023-03-26T01:23:00.349Z,270.000000
2023-03-26T01:24:01.340Z,267.500000
2023-03-26T01:25:03.468Z,267.500000
2023-03-26T01:26:01.300Z,267.500000
2023-03-26T01:27:00.399Z,267.500000
2023-03-26T01:28:01.499Z,267.500000
2023-03-26T01:29:00.385Z,267.500000
2023-03-26T01:32:20.422Z,222.500000
2023-03-26T01:33:00.471Z,220.000000
2023-03-26T01:34:00.509Z,220.000000
2023-03-26T01:35:03.563Z,220.000000
2023-03-26T01:36:00.566Z,220.000000
2023-03-26T01:37:00.417Z,220.000000
2023-03-26T01:38:01.779Z,260.000000
2023-03-26T01:39:00.863Z,260.000000
2023-03-26T01:40:05.268Z,260.000000
2023-03-26T01:41:00.480Z,282.500000
2023-03-26T01:42:03.667Z,282.500000
2023-03-26T01:43:00.496Z,282.500000
2023-03-26T01:44:00.591Z,237.500000
2023-03-26T01:45:04.512Z,237.500000
2023-03-26T01:46:00.591Z,222.500000
2023-03-26T01:47:00.616Z,222.500000
2023-03-26T01:48:03.739Z,222.500000
2023-03-26T01:49:00.516Z,222.500000
2023-03-26T01:50:04.955Z,222.500000
2023-03-26T01:51:00.539Z,222.500000
2023-03-26T01:52:02.477Z,222.500000
2023-03-26T01:53:00.539Z,222.500000
2023-03-26T01:54:02.688Z,222.500000
2023-03-26T01:55:05.830Z,222.500000
2023-03-26T01:56:02.499Z,222.500000
2023-03-26T01:57:00.590Z,222.500000
2023-03-26T01:58:00.654Z,222.500000
2023-03-26T01:59:00.570Z,222.500000
2023-03-26T02:00:36.399Z,222.500000
2023-03-26T02:01:00.619Z,222.500000
2023-03-26T02:02:00.843Z,222.500000
2023-03-26T02:03:00.666Z,222.500000
2023-03-26T02:04:01.749Z,222.500000
2023-03-26T02:05:03.978Z,222.500000
2023-03-26T02:06:04.033Z,87.500000
2023-03-26T02:07:00.649Z,87.500000
2023-03-26T02:08:00.726Z,87.500000
2023-03-26T02:09:00.673Z,87.500000
2023-03-26T02:10:06.609Z,87.500000
2023-03-26T02:11:00.677Z,87.500000
2023-03-26T02:12:00.822Z,87.500000
2023-03-26T02:13:00.693Z,87.500000
2023-03-26T02:14:32.818Z,90.000000
2023-03-26T02:15:03.908Z,90.000000
2023-03-26T02:16:03.571Z,102.500000
2023-03-26T02:17:00.736Z,102.500000
2023-03-26T02:18:16.345Z,125.000000
2023-03-26T02:19:00.798Z,125.000000
2023-03-26T02:20:05.623Z,125.000000
2023-03-26T02:21:00.750Z,125.000000
2023-03-26T02:22:32.828Z,125.000000
2023-03-26T02:23:00.755Z,125.000000
2023-03-26T02:24:01.875Z,125.000000
2023-03-26T02:25:03.877Z,125.000000
2023-03-26T02:26:01.865Z,125.000000
2023-03-26T02:27:00.789Z,125.000000
2023-03-26T02:34:39.981Z,160.000000
2023-03-26T02:35:03.914Z,160.000000
2023-03-26T02:36:00.985Z,172.500000
2023-03-26T02:37:00.841Z,172.500000
2023-03-26T02:38:00.917Z,172.500000
2023-03-26T02:39:00.847Z,82.500000
2023-03-26T02:40:05.587Z,82.500000
2023-03-26T02:41:00.877Z,82.500000
2023-03-26T02:42:00.988Z,155.000000
2023-03-26T02:43:00.857Z,155.000000
2023-03-26T02:44:00.937Z,172.500000
2023-03-26T02:45:04.008Z,172.500000
2023-03-26T02:46:00.989Z,172.500000
2023-03-26T02:47:00.891Z,172.500000
2023-03-26T02:48:01.059Z,172.500000
2023-03-26T02:49:00.886Z,172.500000
2023-03-26T02:50:04.934Z,172.500000
2023-03-26T02:51:00.913Z,172.500000
2023-03-26T02:52:01.036Z,172.500000
2023-03-26T02:53:00.906Z,172.500000
2023-03-26T02:54:01.005Z,172.500000
2023-03-26T02:55:04.180Z,172.500000
2023-03-26T02:56:01.008Z,172.500000
2023-03-26T02:57:00.997Z,160.000000
2023-03-26T02:58:01.090Z,160.000000
2023-03-26T02:59:00.951Z,142.500000
2023-03-26T03:00:05.182Z,142.500000
2023-03-26T03:01:01.016Z,142.500000
2023-03-26T03:02:01.164Z,157.500000
2023-03-26T03:03:01.091Z,157.500000
2023-03-26T03:04:01.092Z,157.500000
2023-03-26T03:05:04.166Z,162.500000
2023-03-26T03:06:01.115Z,162.500000
2023-03-26T03:07:01.047Z,152.500000
2023-03-26T03:08:01.132Z,152.500000
2023-03-26T03:09:01.037Z,170.000000
2023-03-26T03:10:04.600Z,170.000000
2023-03-26T03:11:01.064Z,175.000000
2023-03-26T03:12:01.149Z,175.000000
2023-03-26T03:13:01.074Z,175.000000
2023-03-26T03:14:01.180Z,167.500000
2023-03-26T03:15:04.151Z,167.500000
2023-03-26T03:16:01.174Z,167.500000
2023-03-26T03:17:01.210Z,167.500000
2023-03-26T03:18:01.230Z,167.500000
2023-03-26T03:19:01.119Z,170.000000
2023-03-26T03:20:04.679Z,170.000000
2023-03-26T03:21:01.127Z,165.000000
2023-03-26T03:22:01.374Z,165.000000
2023-03-26T03:23:01.113Z,165.000000
2023-03-26T03:24:01.232Z,170.000000
2023-03-26T03:25:05.633Z,170.000000
2023-03-26T03:26:01.266Z,170.000000
2023-03-26T03:27:01.166Z,172.500000
2023-03-26T03:29:06.624Z,162.500000
2023-03-26T03:30:04.819Z,162.500000
2023-03-26T03:31:01.206Z,162.500000
2023-03-26T03:32:01.252Z,185.000000
2023-03-26T03:33:01.232Z,185.000000
2023-03-26T03:34:01.259Z,185.000000
2023-03-26T03:35:05.155Z,172.500000
2023-03-26T03:36:01.316Z,172.500000
2023-03-26T03:37:01.215Z,172.500000
2023-03-26T03:38:00.314Z,167.500000
2023-03-26T03:39:00.236Z,167.500000
2023-03-26T03:40:03.609Z,167.500000
2023-03-26T03:41:00.267Z,167.500000
2023-03-26T03:42:00.376Z,165.000000
2023-03-26T03:43:00.281Z,165.000000
2023-03-26T03:44:00.359Z,165.000000
2023-03-26T03:45:03.520Z,155.000000
2023-03-26T03:46:00.398Z,155.000000
2023-03-26T03:47:00.344Z,160.000000
2023-03-26T03:48:00.402Z,160.000000
2023-03-26T03:49:00.359Z,160.000000
2023-03-26T03:50:03.889Z,185.000000
2023-03-26T03:51:00.309Z,185.000000
2023-03-26T03:52:00.387Z,177.500000
2023-03-26T03:53:00.353Z,177.500000
2023-03-26T03:54:00.430Z,177.500000
2023-03-26T03:55:03.423Z,160.000000
2023-03-26T03:56:00.406Z,160.000000
2023-03-26T03:57:00.423Z,160.000000
2023-03-26T03:58:00.423Z,180.000000
2023-03-26T03:59:00.374Z,180.000000
2023-03-26T04:00:06.863Z,180.000000
2023-03-26T04:01:00.363Z,180.000000
2023-03-26T04:02:00.448Z,180.000000
2023-03-26T04:03:00.496Z,180.000000
2023-03-26T04:04:00.561Z,182.500000
2023-03-26T04:05:03.553Z,182.500000
2023-03-26T04:06:00.469Z,182.500000
2023-03-26T04:07:00.399Z,167.500000
2023-03-26T04:08:00.561Z,167.500000
2023-03-26T04:09:00.439Z,167.500000
2023-03-26T04:10:04.000Z,155.000000
2023-03-26T04:11:00.503Z,155.000000
2023-03-26T04:12:00.523Z,155.000000
2023-03-26T04:13:00.456Z,155.000000
2023-03-26T04:14:00.519Z,155.000000
2023-03-26T04:15:03.601Z,155.000000
2023-03-26T04:16:00.638Z,155.000000
2023-03-26T04:17:00.501Z,160.000000
2023-03-26T04:18:00.673Z,160.000000
2023-03-26T04:19:00.490Z,160.000000
2023-03-26T04:20:04.309Z,160.000000
2023-03-26T04:21:00.525Z,160.000000
2023-03-26T04:22:00.583Z,162.500000
2023-03-26T04:23:00.556Z,162.500000
2023-03-26T04:24:00.617Z,162.500000
2023-03-26T04:25:03.661Z,162.500000
2023-03-26T04:26:00.619Z,162.500000
2023-03-26T04:27:00.589Z,162.500000
2023-03-26T04:28:00.621Z,137.500000
2023-03-26T04:29:00.608Z,137.500000
2023-03-26T04:30:05.208Z,135.000000
2023-03-26T04:31:00.647Z,135.000000
2023-03-26T04:32:00.731Z,135.000000
2023-03-26T04:33:00.650Z,132.500000
2023-03-26T04:34:00.685Z,132.500000
2023-03-26T04:35:03.763Z,120.000000
2023-03-26T04:36:00.752Z,120.000000
2023-03-26T04:37:00.613Z,120.000000
2023-03-26T04:38:00.731Z,120.000000
2023-03-26T04:39:00.631Z,120.000000
2023-03-26T04:40:05.188Z,115.000000
2023-03-26T04:41:02.121Z,115.000000
2023-03-26T04:42:00.779Z,115.000000
2023-03-26T04:43:00.663Z,122.500000
2023-03-26T04:44:00.756Z,122.500000
2023-03-26T04:45:03.837Z,122.500000
2023-03-26T04:46:00.782Z,122.500000
2023-03-26T04:47:00.706Z,122.500000
2023-03-26T04:48:00.906Z,122.500000
2023-03-26T04:49:00.701Z,122.500000
2023-03-26T04:50:04.394Z,137.500000
2023-03-26T04:51:00.729Z,137.500000
2023-03-26T04:52:00.828Z,137.500000
2023-03-26T04:53:00.711Z,140.000000
2023-03-26T04:54:00.819Z,140.000000
2023-03-26T04:55:03.949Z,140.000000
2023-03-26T04:56:00.818Z,152.500000
2023-03-26T04:57:00.761Z,152.500000
2023-03-26T04:58:00.865Z,137.500000
2023-03-26T04:59:00.765Z,137.500000
2023-03-26T05:00:05.816Z,137.500000
2023-03-26T05:01:00.868Z,137.500000
2023-03-26T05:02:00.888Z,137.500000
2023-03-26T05:03:00.840Z,140.000000
2023-03-26T05:04:01.008Z,140.000000
2023-03-26T05:05:04.031Z,140.000000
2023-03-26T05:06:00.916Z,135.000000
2023-03-26T05:07:00.825Z,135.000000
2023-03-26T05:08:00.903Z,137.500000
2023-03-26T05:09:00.857Z,137.500000
2023-03-26T05:10:04.660Z,135.000000
2023-03-26T05:11:00.851Z,135.000000
2023-03-26T05:12:00.935Z,135.000000
2023-03-26T05:13:00.843Z,135.000000
2023-03-26T05:14:00.940Z,135.000000
2023-03-26T05:15:04.168Z,135.000000
2023-03-26T05:16:01.025Z,150.000000
2023-03-26T05:17:00.863Z,150.000000
2023-03-26T05:18:00.996Z,142.500000
2023-03-26T05:19:00.873Z,142.500000
2023-03-26T05:20:04.893Z,142.500000
2023-03-26T05:21:00.921Z,150.000000
2023-03-26T05:22:00.998Z,150.000000
2023-03-26T05:23:00.918Z,145.000000
2023-03-26T05:24:01.000Z,145.000000
2023-03-26T05:25:06.042Z,145.000000
2023-03-26T05:26:01.046Z,135.000000
2023-03-26T05:27:00.964Z,135.000000
2023-03-26T05:28:01.063Z,137.500000
2023-03-26T05:29:00.970Z,137.500000
2023-03-26T05:30:05.182Z,137.500000
2023-03-26T05:31:00.968Z,137.500000
2023-03-26T05:32:01.059Z,137.500000
2023-03-26T05:33:01.021Z,150.000000
2023-03-26T05:34:01.147Z,150.000000
2023-03-26T05:35:04.249Z,150.000000
2023-03-26T05:36:01.273Z,135.000000
2023-03-26T05:37:00.998Z,135.000000
2023-03-26T05:38:01.115Z,140.000000
2023-03-26T05:39:01.036Z,140.000000
2023-03-26T05:40:05.930Z,140.000000
2023-03-26T05:41:01.040Z,132.500000
2023-03-26T05:42:01.128Z,132.500000
2023-03-26T05:43:01.034Z,137.500000
2023-03-26T05:44:01.130Z,137.500000
2023-03-26T05:45:04.098Z,137.500000
2023-03-26T05:46:01.234Z,142.500000
2023-03-26T05:47:01.067Z,142.500000
2023-03-26T05:48:01.303Z,142.500000
2023-03-26T05:49:01.078Z,140.000000
2023-03-26T05:50:04.786Z,140.000000
2023-03-26T05:51:01.112Z,140.000000
2023-03-26T05:52:01.232Z,145.000000
2023-03-26T05:53:01.103Z,145.000000
2023-03-26T05:54:01.227Z,147.500000
2023-03-26T05:55:04.267Z,147.500000
2023-03-26T05:56:01.206Z,145.000000
2023-03-26T05:57:01.222Z,145.000000
2023-03-26T05:58:01.241Z,135.000000
2023-03-26T05:59:01.165Z,135.000000
2023-03-26T06:00:06.332Z,135.000000
2023-03-26T06:01:01.147Z,135.000000
2023-03-26T06:02:01.247Z,130.000000
2023-03-26T06:03:01.332Z,130.000000
2023-03-26T06:04:01.415Z,135.000000
2023-03-26T06:05:04.385Z,135.000000
2023-03-26T06:06:01.269Z,132.500000
2023-03-26T06:07:01.175Z,132.500000
2023-03-26T06:08:01.311Z,132.500000
2023-03-26T06:09:02.997Z,125.000000
2023-03-26T06:10:06.092Z,125.000000
2023-03-26T06:11:01.231Z,125.000000
2023-03-26T06:12:01.334Z,147.500000
2023-03-26T06:13:00.246Z,147.500000
2023-03-26T06:14:00.312Z,147.500000
2023-03-26T06:15:03.564Z,132.500000
2023-03-26T06:16:00.416Z,132.500000
2023-03-26T06:17:00.259Z,130.000000
2023-03-26T06:18:00.403Z,130.000000
2023-03-26T06:19:00.299Z,135.000000
2023-03-26T06:20:06.898Z,135.000000
2023-03-26T06:21:00.277Z,135.000000
2023-03-26T06:22:00.582Z,132.500000
2023-03-26T06:23:00.268Z,132.500000
2023-03-26T06:24:00.417Z,125.000000
2023-03-26T06:25:03.588Z,125.000000
2023-03-26T06:26:00.369Z,125.000000
2023-03-26T06:27:00.313Z,125.000000
2023-03-26T06:28:01.236Z,125.000000
2023-03-26T06:29:00.299Z,120.000000
2023-03-26T06:30:04.008Z,120.000000
2023-03-26T06:31:00.338Z,120.000000
2023-03-26T06:32:12.386Z,115.000000
2023-03-26T06:33:00.456Z,115.000000
2023-03-26T06:34:00.451Z,115.000000
2023-03-26T06:35:03.696Z,125.000000
2023-03-26T06:36:00.466Z,125.000000
2023-03-26T06:37:00.361Z,122.500000
2023-03-26T06:38:00.450Z,122.500000
2023-03-26T06:39:00.392Z,122.500000
2023-03-26T06:40:05.281Z,130.000000
2023-03-26T06:41:00.401Z,130.000000
2023-03-26T06:42:00.506Z,120.000000
2023-03-26T06:43:08.668Z,120.000000
2023-03-26T06:44:00.502Z,120.000000
2023-03-26T06:45:03.713Z,120.000000
2023-03-26T06:46:00.540Z,120.000000
2023-03-26T06:47:00.472Z,120.000000
2023-03-26T06:48:00.626Z,120.000000
2023-03-26T06:49:00.472Z,115.000000
2023-03-26T06:50:04.193Z,115.000000
2023-03-26T06:51:00.489Z,115.000000
2023-03-26T06:52:00.610Z,110.000000
2023-03-26T06:53:00.493Z,112.500000
2023-03-26T06:54:00.585Z,112.500000
2023-03-26T06:55:03.827Z,137.500000
2023-03-26T06:56:00.637Z,137.500000
2023-03-26T06:57:00.558Z,127.500000
2023-03-26T06:58:00.628Z,127.500000
2023-03-26T06:59:00.521Z,127.500000
2023-03-26T07:00:04.491Z,117.500000
2023-03-26T07:01:00.549Z,117.500000
2023-03-26T07:02:00.615Z,115.000000
2023-03-26T07:03:00.589Z,115.000000
2023-03-26T07:04:00.705Z,125.000000
2023-03-26T07:05:03.760Z,125.000000
2023-03-26T07:06:00.666Z,125.000000
2023-03-26T07:07:00.567Z,150.000000
2023-03-26T07:08:00.701Z,150.000000
2023-03-26T07:09:00.592Z,145.000000
2023-03-26T07:10:04.346Z,137.500000
2023-03-26T07:11:00.591Z,137.500000
2023-03-26T07:12:00.720Z,135.000000
2023-03-26T07:13:00.604Z,135.000000
2023-03-26T07:14:00.691Z,135.000000
2023-03-26T07:15:05.888Z,135.000000
2023-03-26T07:16:00.785Z,135.000000
2023-03-26T07:17:00.621Z,125.000000
2023-03-26T07:18:00.756Z,125.000000
2023-03-26T07:19:00.651Z,125.000000
2023-03-26T07:20:03.935Z,120.000000
2023-03-26T07:21:00.699Z,120.000000
2023-03-26T07:22:00.770Z,120.000000
2023-03-26T07:23:00.676Z,120.000000
2023-03-26T07:24:00.764Z,125.000000
2023-03-26T07:25:04.019Z,125.000000
2023-03-26T07:26:00.765Z,125.000000
2023-03-26T07:27:00.758Z,130.000000
2023-03-26T07:30:14.917Z,117.500000
2023-03-26T07:31:00.729Z,117.500000
2023-03-26T07:32:00.843Z,117.500000
2023-03-26T07:33:00.792Z,122.500000
2023-03-26T07:34:00.804Z,122.500000
2023-03-26T07:35:03.992Z,120.000000
2023-03-26T07:43:58.581Z,145.000000
2023-03-26T07:44:00.856Z,145.000000
2023-03-26T07:45:03.879Z,152.500000
2023-03-26T07:46:00.988Z,152.500000
2023-03-26T07:47:00.801Z,132.500000
2023-03-26T07:48:01.025Z,132.500000
2023-03-26T07:49:00.833Z,132.500000
2023-03-26T07:50:05.717Z,140.000000
2023-03-26T07:51:00.832Z,140.000000
2023-03-26T07:52:00.949Z,140.000000
2023-03-26T07:53:00.833Z,150.000000
2023-03-26T07:54:01.008Z,150.000000
2023-03-26T07:55:05.476Z,135.000000
2023-03-26T07:56:01.045Z,135.000000
2023-03-26T07:57:01.414Z,135.000000
2023-03-26T07:58:01.069Z,135.000000
2023-03-26T07:59:00.880Z,135.000000
2023-03-26T08:00:05.748Z,130.000000
2023-03-26T08:01:00.961Z,130.000000
2023-03-26T08:02:01.068Z,130.000000
2023-03-26T08:03:01.005Z,125.000000
2023-03-26T08:04:23.224Z,125.000000
2023-03-26T08:05:04.180Z,125.000000
2023-03-26T08:06:01.101Z,125.000000
2023-03-26T08:07:00.987Z,125.000000
2023-03-26T08:08:01.025Z,122.500000
2023-03-26T08:09:01.208Z,122.500000
2023-03-26T08:10:05.583Z,120.000000
2023-03-26T08:11:00.971Z,120.000000
2023-03-26T08:12:01.118Z,120.000000
2023-03-26T08:13:01.010Z,115.000000
2023-03-26T08:14:01.172Z,115.000000
2023-03-26T08:15:04.354Z,115.000000
2023-03-26T08:16:01.297Z,127.500000
2023-03-26T08:17:01.026Z,127.500000
2023-03-26T08:18:01.316Z,155.000000
2023-03-26T08:19:01.018Z,155.000000
2023-03-26T08:20:05.111Z,135.000000
2023-03-26T08:21:01.062Z,135.000000
2023-03-26T08:22:01.200Z,142.500000
2023-03-26T08:23:01.050Z,142.500000
2023-03-26T08:24:01.256Z,142.500000
2023-03-26T08:25:04.324Z,140.000000
2023-03-26T08:26:01.174Z,140.000000
2023-03-26T08:27:01.081Z,140.000000
2023-03-26T08:28:01.622Z,147.500000
2023-03-26T08:29:01.086Z,147.500000
2023-03-26T08:30:07.905Z,132.500000
2023-03-26T08:31:01.122Z,132.500000
2023-03-26T08:33:07.010Z,130.000000
2023-03-26T08:34:04.938Z,130.000000
2023-03-26T08:35:04.631Z,142.500000
2023-03-26T08:36:01.635Z,142.500000
2023-03-26T08:37:01.138Z,142.500000
2023-03-26T08:38:04.895Z,130.000000
2023-03-26T08:39:01.151Z,130.000000
2023-03-26T08:40:09.108Z,137.500000
2023-03-26T08:41:01.162Z,137.500000
2023-03-26T08:42:02.433Z,137.500000
2023-03-26T08:43:01.163Z,140.000000
2023-03-26T08:44:02.409Z,140.000000
2023-03-26T08:45:04.845Z,140.000000
2023-03-26T08:46:01.560Z,130.000000
2023-03-26T08:47:01.179Z,130.000000
2023-03-26T08:48:01.793Z,130.000000
2023-03-26T08:49:01.340Z,160.000000
2023-03-26T08:52:21.426Z,145.000000
2023-03-26T08:53:00.226Z,145.000000
2023-03-26T08:54:16.663Z,142.500000
2023-03-26T08:55:03.624Z,142.500000
2023-03-26T08:56:32.501Z,135.000000
2023-03-26T08:57:00.292Z,135.000000
2023-03-26T08:58:02.982Z,142.500000
2023-03-26T08:59:00.278Z,142.500000
2023-03-26T09:00:04.137Z,142.500000
2023-03-26T09:01:00.311Z,145.000000
2023-03-26T09:23:09.298Z,130.000000
2023-03-26T09:24:00.593Z,127.500000
2023-03-26T09:25:03.677Z,127.500000
2023-03-26T09:26:00.527Z,127.500000
2023-03-26T09:27:00.461Z,135.000000
2023-03-26T09:28:05.874Z,135.000000
2023-03-26T09:29:00.476Z,130.000000
2023-03-26T09:35:39.207Z,125.000000
2023-03-26T09:36:00.623Z,125.000000
2023-03-26T09:37:00.487Z,120.000000
2023-03-26T09:38:00.674Z,120.000000
2023-03-26T09:39:00.542Z,117.500000
2023-03-26T09:40:05.359Z,117.500000
2023-03-26T09:41:00.537Z,122.500000
2023-03-26T09:42:00.719Z,122.500000
2023-03-26T09:43:00.509Z,122.500000
2023-03-26T09:44:00.670Z,125.000000
2023-03-26T09:45:04.014Z,125.000000
2023-03-26T09:46:00.752Z,125.000000
2023-03-26T09:47:00.600Z,125.000000
2023-03-26T09:48:00.771Z,125.000000
2023-03-26T09:49:00.565Z,130.000000
2023-03-26T09:50:04.077Z,130.000000
2023-03-26T09:51:00.581Z,132.500000
2023-03-26T09:52:00.717Z,132.500000
2023-03-26T09:53:00.620Z,132.500000
2023-03-26T09:54:00.830Z,132.500000
2023-03-26T09:55:04.026Z,132.500000
2023-03-26T09:56:00.778Z,132.500000
2023-03-26T09:57:00.665Z,125.000000
2023-03-26T09:58:00.751Z,125.000000
2023-03-26T09:59:00.641Z,130.000000
2023-03-26T10:00:05.255Z,130.000000
2023-03-26T10:01:00.674Z,130.000000
2023-03-26T10:02:00.800Z,132.500000
2023-03-26T10:03:00.669Z,132.500000
2023-03-26T10:04:00.768Z,130.000000
2023-03-26T10:05:04.032Z,130.000000
2023-03-26T10:06:00.960Z,130.000000
2023-03-26T10:07:00.681Z,130.000000
2023-03-26T10:08:00.780Z,130.000000
2023-03-26T10:09:00.708Z,135.000000
2023-03-26T10:10:05.577Z,135.000000
2023-03-26T10:11:00.723Z,127.500000
2023-03-26T10:12:00.867Z,127.500000
2023-03-26T10:13:13.590Z,127.500000
2023-03-26T10:14:00.890Z,125.000000
2023-03-26T10:15:03.991Z,125.000000
2023-03-26T10:16:00.897Z,122.500000
2023-03-26T10:17:00.806Z,122.500000
2023-03-26T10:18:00.868Z,122.500000
2023-03-26T10:19:00.767Z,127.500000
2023-03-26T10:20:04.698Z,127.500000
2023-03-26T10:21:00.770Z,127.500000
2023-03-26T10:22:01.045Z,122.500000
2023-03-26T10:23:00.785Z,122.500000
2023-03-26T10:24:00.877Z,125.000000
2023-03-26T10:25:03.993Z,125.000000
2023-03-26T10:26:00.953Z,125.000000
2023-03-26T10:27:08.872Z,135.000000
2023-03-26T10:28:33.166Z,135.000000
2023-03-26T10:29:00.781Z,135.000000
2023-03-26T10:35:09.946Z,112.500000
2023-03-26T10:36:01.032Z,112.500000
2023-03-26T10:37:00.830Z,120.000000
2023-03-26T10:38:00.930Z,120.000000
2023-03-26T10:39:00.855Z,120.000000
2023-03-26T10:40:04.330Z,125.000000
2023-03-26T10:41:01.023Z,125.000000
2023-03-26T10:42:01.039Z,142.500000
2023-03-26T10:43:00.850Z,142.500000
2023-03-26T10:44:07.891Z,142.500000
2023-03-26T10:45:05.214Z,132.500000
2023-03-26T10:46:00.991Z,132.500000
2023-03-26T10:47:00.912Z,127.500000
2023-03-26T10:48:01.160Z,127.500000
2023-03-26T10:49:00.932Z,127.500000
2023-03-26T10:50:04.715Z,127.500000
2023-03-26T10:51:00.910Z,127.500000
2023-03-26T10:52:01.106Z,127.500000
2023-03-26T10:53:00.946Z,125.000000
2023-03-26T10:54:01.233Z,125.000000
2023-03-26T10:55:04.995Z,120.000000
2023-03-26T10:56:01.072Z,120.000000
2023-03-26T10:57:01.028Z,132.500000
2023-03-26T10:58:01.110Z,132.500000
2023-03-26T10:59:00.973Z,135.000000
2023-03-26T11:00:11.888Z,137.500000
2023-03-26T11:01:00.953Z,137.500000
2023-03-26T11:02:01.070Z,127.500000
2023-03-26T11:03:01.012Z,127.500000
2023-03-26T11:04:01.101Z,127.500000
2023-03-26T11:05:04.651Z,115.000000
2023-03-26T11:06:01.206Z,115.000000
2023-03-26T11:07:01.020Z,125.000000
2023-03-26T11:08:01.191Z,125.000000
2023-03-26T11:09:01.024Z,125.000000
2023-03-26T11:10:04.786Z,117.500000
2023-03-26T11:11:01.045Z,117.500000
2023-03-26T11:12:01.112Z,117.500000
2023-03-26T11:13:01.026Z,125.000000
2023-03-26T11:14:01.232Z,125.000000
2023-03-26T11:15:04.264Z,130.000000
2023-03-26T11:16:01.312Z,130.000000
2023-03-26T11:17:01.051Z,130.000000
2023-03-26T11:18:01.187Z,125.000000
2023-03-26T11:19:01.054Z,125.000000
2023-03-26T11:20:04.642Z,130.000000
2023-03-26T11:21:18.539Z,130.000000
2023-03-26T11:22:01.277Z,130.000000
2023-03-26T11:23:01.101Z,130.000000
2023-03-26T11:24:04.997Z,130.000000
2023-03-26T11:25:05.631Z,147.500000
2023-03-26T11:26:01.218Z,147.500000
2023-03-26T11:27:14.987Z,130.000000
2023-03-26T11:34:40.287Z,137.500000
2023-03-26T11:35:04.424Z,137.500000
2023-03-26T11:36:01.359Z,137.500000
2023-03-26T11:37:01.196Z,137.500000
2023-03-26T11:38:02.353Z,122.500000
2023-03-26T11:39:01.238Z,122.500000
2023-03-26T11:40:05.809Z,140.000000
2023-03-26T11:41:00.240Z,140.000000
2023-03-26T11:42:00.382Z,150.000000
2023-03-26T11:43:00.223Z,150.000000
2023-03-26T11:44:01.441Z,150.000000
2023-03-26T11:45:03.492Z,142.500000
2023-03-26T11:46:01.464Z,142.500000
2023-03-26T11:47:00.249Z,142.500000
2023-03-26T11:48:03.591Z,130.000000
2023-03-26T11:49:00.255Z,130.000000
2023-03-26T11:50:06.802Z,130.000000
2023-03-26T11:51:00.300Z,135.000000
2023-03-26T11:52:01.516Z,135.000000
2023-03-26T11:53:00.285Z,140.000000
2023-03-26T11:54:01.516Z,140.000000
2023-03-26T11:55:03.400Z,157.500000
2023-03-26T11:56:00.465Z,157.500000
2023-03-26T11:57:05.411Z,157.500000
2023-03-26T11:58:03.594Z,157.500000
2023-03-26T11:59:00.323Z,157.500000
2023-03-26T12:00:05.192Z,157.500000
2023-03-26T12:01:00.372Z,135.000000
2023-03-26T12:02:03.653Z,135.000000
2023-03-26T12:03:00.454Z,152.500000